Time;durP1;ratioP1;P1;durP2;ratioP2;P2;SDS_P1;SDS_P2;PMS_P1;PMS_P2;Temp;Humidity;BMP_temperature;BMP_pressure;BME280_temperature;BME280_humidity;BME280_pressure;Samples;Min_cycle;Max_cycle;Signal;HPM_P1;HPM_P2
2022/09/23 00:00:10;0.00;0.00;0.62;0.00;0.00;0.62;1.80;1.20;;;28.90;26.50;;;;;;2229356;62;20369;-66
2022/09/23 00:02:55;0.00;0.00;0.62;0.00;0.00;0.62;1.50;1.00;;;28.80;25.90;;;;;;2230468;62;20369;-66
2022/09/23 00:05:39;0.00;0.00;0.62;0.00;0.00;0.62;1.80;1.43;;;28.80;25.90;;;;;;2230441;62;20380;-66
2022/09/23 00:08:24;0.00;0.00;0.62;0.00;0.00;0.62;1.50;1.10;;;28.80;25.70;;;;;;2229363;62;20788;-66
2022/09/23 00:11:11;0.00;0.00;0.62;0.00;0.00;0.62;1.90;1.13;;;28.70;25.60;;;;;;2235562;62;20370;-66
2022/09/23 00:13:59;0.00;0.00;0.62;0.00;0.00;0.62;3.30;1.20;;;28.60;25.50;;;;;;2237876;62;20358;-66
2022/09/23 00:16:44;0.00;0.00;0.62;0.00;0.00;0.62;1.90;1.33;;;28.60;25.40;;;;;;2237832;62;20375;-66
2022/09/23 00:19:28;0.00;0.00;0.62;0.00;0.00;0.62;2.37;1.10;;;28.60;25.20;;;;;;2238425;62;20419;-66
2022/09/23 00:22:13;0.00;0.00;0.62;0.00;0.00;0.62;2.47;1.10;;;28.50;25.10;;;;;;2237161;62;20735;-66
2022/09/23 00:24:58;0.00;0.00;0.62;0.00;0.00;0.62;2.07;1.20;;;28.50;25.10;;;;;;2238303;62;20451;-66
2022/09/23 00:27:43;0.00;0.00;0.62;0.00;0.00;0.62;1.67;1.00;;;28.40;25.10;;;;;;2238070;62;20508;-66
2022/09/23 00:30:30;0.00;0.00;0.62;0.00;0.00;0.62;2.47;1.27;;;28.40;25.60;;;;;;2237279;62;20371;-66
2022/09/23 00:33:14;0.00;0.00;0.62;0.00;0.00;0.62;2.40;1.60;;;28.40;25.10;;;;;;2237220;62;20384;-66
2022/09/23 00:36:00;0.00;0.00;0.62;0.00;0.00;0.62;2.40;1.23;;;28.30;25.00;;;;;;2234203;62;20395;-66
2022/09/23 00:38:46;0.00;0.00;0.62;0.00;0.00;0.62;1.67;1.23;;;28.30;25.00;;;;;;2233738;62;20808;-66
2022/09/23 00:41:31;0.00;0.00;0.62;0.00;0.00;0.62;2.43;1.30;;;28.20;25.00;;;;;;2234167;62;20403;-66
2022/09/23 00:44:45;0.00;0.00;0.62;0.00;0.00;0.62;2.07;1.23;;;28.20;25.00;;;;;;2233162;62;20603;-66
2022/09/23 00:47:34;0.00;0.00;0.62;0.00;0.00;0.62;2.30;1.23;;;28.10;24.90;;;;;;2234152;62;20364;-66
2022/09/23 00:50:28;0.00;0.00;0.62;0.00;0.00;0.62;1.90;1.20;;;28.10;24.80;;;;;;2234287;62;20379;-66
2022/09/23 00:53:18;0.00;0.00;0.62;0.00;0.00;0.62;2.23;1.17;;;28.10;24.80;;;;;;2233324;62;20448;-66
2022/09/23 00:56:09;0.00;0.00;0.62;0.00;0.00;0.62;3.90;1.30;;;28.00;24.70;;;;;;2236373;62;20368;-67
2022/09/23 00:58:54;0.00;0.00;0.62;0.00;0.00;0.62;2.00;1.23;;;28.00;24.70;;;;;;2233339;62;20428;-66
2022/09/23 01:01:39;0.00;0.00;0.62;0.00;0.00;0.62;2.03;1.20;;;27.90;24.70;;;;;;2234190;62;20383;-66
2022/09/23 01:04:27;0.00;0.00;0.62;0.00;0.00;0.62;1.60;1.10;;;27.90;24.70;;;;;;2236428;62;20764;-66
2022/09/23 01:07:12;0.00;0.00;0.62;0.00;0.00;0.62;2.67;1.70;;;27.80;24.70;;;;;;2232945;62;20453;-66
2022/09/23 01:09:59;0.00;0.00;0.62;0.00;0.00;0.62;2.03;1.40;;;27.80;24.60;;;;;;2236425;62;20360;-66
2022/09/23 01:13:06;0.00;0.00;0.62;0.00;0.00;0.62;1.70;1.20;;;27.80;24.70;;;;;;2234043;62;20356;-66
2022/09/23 01:16:01;0.00;0.00;0.62;0.00;0.00;0.62;1.80;1.23;;;27.70;24.60;;;;;;2233925;62;20700;-66
2022/09/23 01:18:53;0.00;0.00;0.62;0.00;0.00;0.62;2.17;1.27;;;27.70;24.60;;;;;;2234028;62;20415;-66
2022/09/23 01:21:51;0.00;0.00;0.62;0.00;0.00;0.62;1.67;1.17;;;27.70;25.20;;;;;;2233100;62;20423;-66
2022/09/23 01:25:22;0.00;0.00;0.62;0.00;0.00;0.62;2.83;1.13;;;27.60;24.60;;;;;;2234152;62;20368;-66
2022/09/23 01:28:29;0.00;0.00;0.62;0.00;0.00;0.62;1.60;1.20;;;27.60;24.50;;;;;;2233767;62;20615;-66
2022/09/23 01:31:22;0.00;0.00;0.62;0.00;0.00;0.62;1.60;1.13;;;27.50;24.50;;;;;;2234262;62;20364;-66
2022/09/23 01:34:12;0.00;0.00;0.62;0.00;0.00;0.62;1.50;1.00;;;27.50;24.50;;;;;;2231635;62;20377;-66
2022/09/23 01:37:02;0.00;0.00;0.62;0.00;0.00;0.62;1.50;1.03;;;27.40;24.50;;;;;;2229004;62;20369;-66
2022/09/23 01:39:59;0.00;0.00;0.62;0.00;0.00;0.62;1.60;1.10;;;27.40;24.50;;;;;;2230049;62;20378;-66
2022/09/23 01:42:51;0.00;0.00;0.62;0.00;0.00;0.62;1.80;1.20;;;27.40;24.60;;;;;;2229989;62;20589;-66
2022/09/23 01:45:40;0.00;0.00;0.62;0.00;0.00;0.62;1.57;1.10;;;27.30;24.50;;;;;;2229840;62;20633;-66
2022/09/23 01:48:34;0.00;0.00;0.62;0.00;0.00;0.62;1.90;1.13;;;27.30;24.50;;;;;;2230040;62;20439;-66
2022/09/23 01:51:25;0.00;0.00;0.62;0.00;0.00;0.62;1.80;1.30;;;27.30;24.50;;;;;;2229005;62;20725;-66
2022/09/23 01:54:17;0.00;0.00;0.62;0.00;0.00;0.62;2.40;1.23;;;27.20;24.60;;;;;;2229937;62;20696;-66
2022/09/23 01:57:06;0.00;0.00;0.62;0.00;0.00;0.62;2.40;1.20;;;27.20;24.60;;;;;;2230012;62;20369;-67
2022/09/23 01:59:56;0.00;0.00;0.62;0.00;0.00;0.62;1.93;1.10;;;27.20;24.60;;;;;;2229235;62;20381;-66
2022/09/23 02:02:48;0.00;0.00;0.62;0.00;0.00;0.62;1.90;1.30;;;27.20;25.20;;;;;;2229957;62;20393;-66
2022/09/23 02:05:38;0.00;0.00;0.62;0.00;0.00;0.62;2.60;1.23;;;27.10;24.50;;;;;;2229251;62;20782;-66
2022/09/23 02:08:28;0.00;0.00;0.62;0.00;0.00;0.62;1.80;0.93;;;27.10;24.50;;;;;;2229888;62;20389;-66
2022/09/23 02:11:15;0.00;0.00;0.62;0.00;0.00;0.62;1.97;1.30;;;27.10;24.60;;;;;;2230099;62;20364;-66
2022/09/23 02:14:05;0.00;0.00;0.62;0.00;0.00;0.62;1.70;1.10;;;27.00;24.60;;;;;;2228948;62;20393;-66
2022/09/23 02:16:54;0.00;0.00;0.62;0.00;0.00;0.62;3.30;1.37;;;27.00;24.60;;;;;;2229960;62;20642;-66
2022/09/23 02:19:46;0.00;0.00;0.62;0.00;0.00;0.62;2.27;1.20;;;27.00;24.60;;;;;;2229890;62;20466;-66
2022/09/23 02:22:40;0.00;0.00;0.62;0.00;0.00;0.62;2.50;1.20;;;27.00;24.70;;;;;;2229652;62;20388;-66
2022/09/23 02:25:32;0.00;0.00;0.62;0.00;0.00;0.62;2.10;1.10;;;27.00;24.70;;;;;;2230067;62;20374;-66
2022/09/23 02:28:25;0.00;0.00;0.62;0.00;0.00;0.62;1.63;1.27;;;26.90;24.70;;;;;;2228753;62;20392;-66
2022/09/23 02:31:21;0.00;0.00;0.62;0.00;0.00;0.62;1.90;1.20;;;26.90;24.70;;;;;;2230039;62;20754;-66
2022/09/23 02:34:18;0.00;0.00;0.62;0.00;0.00;0.62;1.80;1.30;;;26.90;24.70;;;;;;2232293;62;20500;-66
2022/09/23 02:37:21;0.00;0.00;0.62;0.00;0.00;0.62;1.80;0.90;;;26.90;24.70;;;;;;2233049;62;20368;-66
2022/09/23 02:40:18;0.00;0.00;0.62;0.00;0.00;0.62;2.80;1.30;;;26.80;24.60;;;;;;2233926;62;20433;-65
2022/09/23 02:43:09;0.00;0.00;0.62;0.00;0.00;0.62;2.47;1.23;;;26.80;24.60;;;;;;2232730;62;20364;-66
2022/09/23 02:45:54;0.00;0.00;0.62;0.00;0.00;0.62;1.70;1.10;;;26.80;24.60;;;;;;2233944;62;20360;-66
2022/09/23 02:48:45;0.00;0.00;0.62;0.00;0.00;0.62;1.67;1.00;;;26.80;24.50;;;;;;2233800;62;20424;-65
2022/09/23 02:51:37;0.00;0.00;0.62;0.00;0.00;0.62;1.43;1.00;;;26.80;24.60;;;;;;2232823;62;20360;-65
2022/09/23 02:54:24;0.00;0.00;0.62;0.00;0.00;0.62;1.80;1.20;;;26.70;24.50;;;;;;2233897;62;20392;-66
2022/09/23 02:57:10;0.00;0.00;0.62;0.00;0.00;0.62;1.50;1.00;;;26.70;24.60;;;;;;2232870;62;20413;-65
2022/09/23 02:59:55;0.00;0.00;0.62;0.00;0.00;0.62;1.93;1.43;;;26.70;24.60;;;;;;2233916;62;20587;-65
2022/09/23 03:03:13;0.00;0.00;0.62;0.00;0.00;0.62;1.90;1.20;;;26.60;24.50;;;;;;2233887;62;20639;-66
2022/09/23 03:06:03;0.00;0.00;0.62;0.00;0.00;0.62;1.63;1.13;;;26.60;24.60;;;;;;2232763;62;20404;-66
2022/09/23 03:08:57;0.00;0.00;0.62;0.00;0.00;0.62;2.07;1.17;;;26.60;24.60;;;;;;2233973;62;20388;-66
2022/09/23 03:11:45;0.00;0.00;0.62;0.00;0.00;0.62;2.03;1.37;;;26.60;24.60;;;;;;2234137;62;20473;-66
2022/09/23 03:14:40;0.00;0.00;0.62;0.00;0.00;0.62;1.93;1.20;;;26.60;24.60;;;;;;2236463;62;20391;-66
2022/09/23 03:17:32;0.00;0.00;0.62;0.00;0.00;0.62;1.70;1.30;;;26.50;24.60;;;;;;2234407;62;20377;-66
2022/09/23 03:20:25;0.00;0.00;0.62;0.00;0.00;0.62;1.60;1.10;;;26.50;24.50;;;;;;2233349;62;20379;-66
2022/09/23 03:23:14;0.00;0.00;0.62;0.00;0.00;0.62;1.90;0.90;;;26.50;24.50;;;;;;2234503;62;20636;-66
2022/09/23 03:26:04;0.00;0.00;0.62;0.00;0.00;0.62;1.60;1.13;;;26.50;24.60;;;;;;2234356;62;20405;-66
2022/09/23 03:28:50;0.00;0.00;0.62;0.00;0.00;0.62;1.50;1.00;;;26.50;24.60;;;;;;2233766;62;20464;-66
2022/09/23 03:31:38;0.00;0.00;0.62;0.00;0.00;0.62;1.70;1.10;;;26.50;24.60;;;;;;2234525;62;20412;-66
2022/09/23 03:34:27;0.00;0.00;0.62;0.00;0.00;0.62;1.50;0.90;;;26.40;24.50;;;;;;2230483;62;20579;-66
2022/09/23 03:37:19;0.00;0.00;0.62;0.00;0.00;0.62;1.70;1.20;;;26.40;24.60;;;;;;2230481;62;20369;-66
2022/09/23 03:40:12;0.00;0.00;0.62;0.00;0.00;0.62;2.67;1.20;;;26.40;24.60;;;;;;2230473;62;20365;-66
2022/09/23 03:43:00;0.00;0.00;0.62;0.00;0.00;0.62;2.90;1.20;;;26.40;24.60;;;;;;2231775;62;20414;-66
2022/09/23 03:45:45;0.00;0.00;0.62;0.00;0.00;0.62;1.40;1.00;;;26.40;24.50;;;;;;2230689;62;20399;-66
2022/09/23 03:48:31;0.00;0.00;0.62;0.00;0.00;0.62;1.93;1.10;;;26.40;24.50;;;;;;2229632;62;20760;-66
2022/09/23 03:51:22;0.00;0.00;0.62;0.00;0.00;0.62;1.70;1.00;;;26.30;24.50;;;;;;2230277;62;20368;-66
2022/09/23 03:54:07;0.00;0.00;0.62;0.00;0.00;0.62;1.87;1.20;;;26.30;24.50;;;;;;2230437;62;20369;-65
2022/09/23 03:56:56;0.00;0.00;0.62;0.00;0.00;0.62;1.90;1.30;;;26.30;24.50;;;;;;2229197;62;20413;-65
2022/09/23 03:59:41;0.00;0.00;0.62;0.00;0.00;0.62;1.40;1.00;;;26.30;24.50;;;;;;2230507;62;20414;-66
2022/09/23 04:02:26;0.00;0.00;0.62;0.00;0.00;0.62;1.53;0.97;;;26.30;24.60;;;;;;2230374;62;20688;-66
2022/09/23 04:05:13;0.00;0.00;0.62;0.00;0.00;0.62;1.80;1.33;;;26.20;24.50;;;;;;2229410;62;20438;-65
2022/09/23 04:07:58;0.00;0.00;0.62;0.00;0.00;0.62;3.00;1.90;;;26.20;24.50;;;;;;2230387;62;20862;-66
2022/09/23 04:10:43;0.00;0.00;0.62;0.00;0.00;0.62;1.93;1.40;;;26.20;24.50;;;;;;2230052;62;20385;-68
2022/09/23 04:13:28;0.00;0.00;0.62;0.00;0.00;0.62;2.00;1.10;;;26.20;24.50;;;;;;2230139;62;20401;-65
2022/09/23 04:16:13;0.00;0.00;0.62;0.00;0.00;0.62;1.80;1.23;;;26.20;25.10;;;;;;2230258;62;20387;-65
2022/09/23 04:18:58;0.00;0.00;0.62;0.00;0.00;0.62;1.80;1.00;;;26.20;24.50;;;;;;2229273;62;20668;-66
2022/09/23 04:21:44;0.00;0.00;0.62;0.00;0.00;0.62;1.57;1.10;;;26.10;24.50;;;;;;2229792;62;20389;-65
2022/09/23 04:24:29;0.00;0.00;0.62;0.00;0.00;0.62;2.10;1.00;;;26.10;24.50;;;;;;2230390;62;20721;-66
2022/09/23 04:27:14;0.00;0.00;0.62;0.00;0.00;0.62;1.80;1.10;;;26.10;24.50;;;;;;2229167;62;20369;-66
2022/09/23 04:29:59;0.00;0.00;0.62;0.00;0.00;0.62;1.90;1.20;;;26.10;24.60;;;;;;2230295;62;20369;-66
2022/09/23 04:32:43;0.00;0.00;0.62;0.00;0.00;0.62;2.17;1.20;;;26.10;25.10;;;;;;2230341;62;20410;-66
2022/09/23 04:35:29;0.00;0.00;0.62;0.00;0.00;0.62;3.17;1.63;;;26.10;24.60;;;;;;2619521;46;20402;-65
2022/09/23 04:38:15;0.00;0.00;0.62;0.00;0.00;0.62;1.90;1.10;;;26.00;24.50;;;;;;2229818;62;20458;-66
2022/09/23 04:41:00;0.00;0.00;0.62;0.00;0.00;0.62;2.00;1.40;;;26.00;24.40;;;;;;2229252;62;20615;-66
2022/09/23 04:43:45;0.00;0.00;0.62;0.00;0.00;0.62;1.50;1.00;;;26.00;24.50;;;;;;2230264;62;20411;-66
2022/09/23 04:46:30;0.00;0.00;0.62;0.00;0.00;0.62;2.23;1.40;;;26.00;24.50;;;;;;2230262;62;20396;-66
2022/09/23 04:49:15;0.00;0.00;0.62;0.00;0.00;0.62;1.70;1.30;;;26.00;24.50;;;;;;2229182;62;20389;-66
2022/09/23 04:52:01;0.00;0.00;0.62;0.00;0.00;0.62;2.13;1.33;;;26.00;24.60;;;;;;2230221;62;20364;-66
2022/09/23 04:54:47;0.00;0.00;0.62;0.00;0.00;0.62;1.80;1.30;;;26.00;24.60;;;;;;2230299;62;20369;-65
2022/09/23 04:57:33;0.00;0.00;0.62;0.00;0.00;0.62;2.43;1.10;;;25.90;24.50;;;;;;2229369;62;20366;-66
2022/09/23 05:00:17;0.00;0.00;0.62;0.00;0.00;0.62;1.83;1.10;;;25.90;24.50;;;;;;2230347;62;20435;-66
2022/09/23 05:03:03;0.00;0.00;0.62;0.00;0.00;0.62;1.60;1.03;;;25.90;24.50;;;;;;2229645;62;20369;-65
2022/09/23 05:05:48;0.00;0.00;0.62;0.00;0.00;0.62;1.70;1.10;;;25.90;24.50;;;;;;2230141;62;20365;-66
2022/09/23 05:08:33;0.00;0.00;0.62;0.00;0.00;0.62;2.03;1.37;;;25.90;24.50;;;;;;2230251;62;20432;-66
2022/09/23 05:11:21;0.00;0.00;0.62;0.00;0.00;0.62;2.30;1.37;;;25.80;24.50;;;;;;2229095;62;20369;-65
2022/09/23 05:14:06;0.00;0.00;0.62;0.00;0.00;0.62;2.47;1.50;;;25.80;24.50;;;;;;2229864;62;20627;-66
2022/09/23 05:16:50;0.00;0.00;0.62;0.00;0.00;0.62;2.20;1.40;;;25.80;24.50;;;;;;2230193;62;20386;-65
2022/09/23 05:19:35;0.00;0.00;0.62;0.00;0.00;0.62;3.50;1.47;;;25.80;24.50;;;;;;2229096;62;20401;-66
2022/09/23 05:22:19;0.00;0.00;0.62;0.00;0.00;0.62;1.90;1.23;;;25.80;24.50;;;;;;2230298;62;20911;-65
2022/09/23 05:25:05;0.00;0.00;0.62;0.00;0.00;0.62;1.80;1.20;;;25.80;24.50;;;;;;2229442;62;20714;-65
2022/09/23 05:27:51;0.00;0.00;0.62;0.00;0.00;0.62;2.30;1.33;;;25.80;24.50;;;;;;2229984;62;20441;-66
2022/09/23 05:30:36;0.00;0.00;0.62;0.00;0.00;0.62;2.10;1.27;;;25.70;24.40;;;;;;2230283;62;20377;-66
2022/09/23 05:33:21;0.00;0.00;0.62;0.00;0.00;0.62;1.63;1.20;;;25.70;24.50;;;;;;2228618;62;20405;-65
2022/09/23 05:36:06;0.00;0.00;0.62;0.00;0.00;0.62;2.47;1.50;;;25.70;24.50;;;;;;2230176;62;20372;-65
2022/09/23 05:38:52;0.00;0.00;0.62;0.00;0.00;0.62;2.40;1.43;;;25.70;24.50;;;;;;2230424;62;20389;-65
2022/09/23 05:41:37;0.00;0.00;0.62;0.00;0.00;0.62;1.97;1.23;;;25.70;24.50;;;;;;2228954;62;20396;-65
2022/09/23 05:44:23;0.00;0.00;0.62;0.00;0.00;0.62;2.10;1.40;;;25.60;24.50;;;;;;2230266;62;20414;-65
2022/09/23 05:47:08;0.00;0.00;0.62;0.00;0.00;0.62;1.87;1.07;;;25.70;24.50;;;;;;2229585;62;20369;-65
2022/09/23 05:49:54;0.00;0.00;0.62;0.00;0.00;0.62;2.80;2.00;;;25.60;24.60;;;;;;2230090;62;20701;-64
2022/09/23 05:52:39;0.00;0.00;0.62;0.00;0.00;0.62;2.17;1.20;;;25.60;24.50;;;;;;2230234;62;20434;-65
2022/09/23 05:55:24;0.00;0.00;0.62;0.00;0.00;0.62;3.60;1.40;;;25.60;24.50;;;;;;2228792;62;20373;-66
2022/09/23 05:58:10;0.00;0.00;0.62;0.00;0.00;0.62;2.30;1.17;;;25.50;24.50;;;;;;2229985;62;20389;-66
2022/09/23 06:00:57;0.00;0.00;0.62;0.00;0.00;0.62;2.70;1.17;;;25.60;24.60;;;;;;2230135;62;20373;-66
2022/09/23 06:03:46;0.00;0.00;0.62;0.00;0.00;0.62;1.93;1.20;;;25.50;24.50;;;;;;2228997;62;20700;-65
2022/09/23 06:06:33;0.00;0.00;0.62;0.00;0.00;0.62;2.00;1.30;;;25.50;24.60;;;;;;2229594;62;20404;-64
2022/09/23 06:09:18;0.00;0.00;0.62;0.00;0.00;0.62;1.90;1.33;;;25.50;24.60;;;;;;2229558;62;20393;-66
2022/09/23 06:12:03;0.00;0.00;0.62;0.00;0.00;0.62;2.00;1.30;;;25.50;24.60;;;;;;2229882;62;20369;-66
2022/09/23 06:14:49;0.00;0.00;0.62;0.00;0.00;0.62;2.27;1.50;;;25.50;24.60;;;;;;2229600;62;20583;-65
2022/09/23 06:17:35;0.00;0.00;0.62;0.00;0.00;0.62;2.43;1.53;;;25.40;24.60;;;;;;2228813;62;20430;-65
2022/09/23 06:20:20;0.00;0.00;0.62;0.00;0.00;0.62;2.10;1.47;;;25.40;24.60;;;;;;2230159;62;20361;-65
2022/09/23 06:23:07;0.00;0.00;0.62;0.00;0.00;0.62;2.47;1.60;;;25.40;24.40;;;;;;2229413;62;20438;-66
2022/09/23 06:25:51;0.00;0.00;0.62;0.00;0.00;0.62;2.30;1.50;;;25.30;24.30;;;;;;2229129;62;20756;-64
2022/09/23 06:28:38;0.00;0.00;0.62;0.00;0.00;0.62;5.57;1.63;;;25.30;24.40;;;;;;2230038;62;20405;-65
2022/09/23 06:31:23;0.00;0.00;0.62;0.00;0.00;0.62;1.90;1.20;;;25.30;24.30;;;;;;2229501;62;20444;-64
2022/09/23 06:34:11;0.00;0.00;0.62;0.00;0.00;0.62;2.80;1.60;;;25.20;24.30;;;;;;2230609;62;20380;-61
2022/09/23 06:36:56;0.00;0.00;0.62;0.00;0.00;0.62;3.70;1.30;;;25.20;24.40;;;;;;2229778;62;20697;-64
2022/09/23 06:39:41;0.00;0.00;0.62;0.00;0.00;0.62;2.90;1.47;;;25.20;24.50;;;;;;2228828;62;20369;-65
2022/09/23 06:42:26;0.00;0.00;0.62;0.00;0.00;0.62;2.20;1.43;;;25.20;24.60;;;;;;2237030;62;20440;-65
2022/09/23 06:45:14;0.00;0.00;0.62;0.00;0.00;0.62;1.87;1.20;;;25.10;24.60;;;;;;2237915;62;20783;-65
2022/09/23 06:47:58;0.00;0.00;0.62;0.00;0.00;0.62;3.60;1.30;;;25.20;24.70;;;;;;2237298;62;20480;-65
2022/09/23 06:50:45;0.00;0.00;0.62;0.00;0.00;0.62;2.90;1.73;;;25.10;24.70;;;;;;2238532;62;20394;-65
2022/09/23 06:53:33;0.00;0.00;0.62;0.00;0.00;0.62;2.77;1.70;;;25.10;24.80;;;;;;2234514;62;20734;-63
2022/09/23 06:56:20;0.00;0.00;0.62;0.00;0.00;0.62;2.10;1.40;;;25.10;25.30;;;;;;2236378;62;20675;-63
2022/09/23 06:59:05;0.00;0.00;0.62;0.00;0.00;0.62;2.00;1.50;;;25.10;24.80;;;;;;2238486;62;20431;-63
2022/09/23 07:01:50;0.00;0.00;0.62;0.00;0.00;0.62;2.07;1.50;;;25.10;24.80;;;;;;2237622;62;20383;-62
2022/09/23 07:04:35;0.00;0.00;0.62;0.00;0.00;0.62;2.70;1.60;;;25.10;24.70;;;;;;2238581;62;20414;-63
2022/09/23 07:07:22;0.00;0.00;0.62;0.00;0.00;0.62;2.67;1.40;;;25.10;24.70;;;;;;2238068;62;20359;-63
2022/09/23 07:10:08;0.00;0.00;0.62;0.00;0.00;0.62;2.87;1.63;;;25.10;24.70;;;;;;2237516;62;20386;-63
2022/09/23 07:12:53;0.00;0.00;0.62;0.00;0.00;0.62;2.03;1.60;;;25.10;24.70;;;;;;2238318;62;20582;-63
2022/09/23 07:15:37;0.00;0.00;0.62;0.00;0.00;0.62;2.73;1.20;;;25.10;24.70;;;;;;2238376;62;20649;-64
2022/09/23 07:18:22;0.00;0.00;0.62;0.00;0.00;0.62;2.20;1.60;;;25.10;24.80;;;;;;2237791;62;20395;-63
2022/09/23 07:21:12;0.00;0.00;0.62;0.00;0.00;0.62;3.07;1.40;;;25.10;24.80;;;;;;2238383;62;20703;-63
2022/09/23 07:23:59;0.00;0.00;0.62;0.00;0.00;0.62;1.83;1.20;;;25.10;24.80;;;;;;2237285;62;20355;-65
2022/09/23 07:26:43;0.00;0.00;0.62;0.00;0.00;0.62;2.00;1.40;;;25.10;24.80;;;;;;2240620;62;20584;-64
2022/09/23 07:29:28;0.00;0.00;0.62;0.00;0.00;0.62;4.77;1.90;;;25.10;24.80;;;;;;2238500;62;20431;-63
2022/09/23 07:32:13;0.00;0.00;0.62;0.00;0.00;0.62;2.07;1.40;;;25.10;24.80;;;;;;2237319;62;20443;-63
2022/09/23 07:34:58;0.00;0.00;0.62;0.00;0.00;0.62;2.47;1.47;;;25.10;24.80;;;;;;2234599;62;20409;-62
2022/09/23 07:37:42;0.00;0.00;0.62;0.00;0.00;0.62;2.37;1.63;;;25.10;24.80;;;;;;2237639;62;20394;-62
2022/09/23 07:40:28;0.00;0.00;0.62;0.00;0.00;0.62;3.37;1.63;;;25.10;24.80;;;;;;2237700;62;20360;-63
2022/09/23 07:43:13;0.00;0.00;0.62;0.00;0.00;0.62;3.10;1.90;;;25.10;24.80;;;;;;2238274;62;20603;-65
2022/09/23 07:46:01;0.00;0.00;0.62;0.00;0.00;0.62;2.67;2.00;;;25.10;24.80;;;;;;2237374;62;20358;-64
2022/09/23 07:48:46;0.00;0.00;0.62;0.00;0.00;0.62;4.10;1.60;;;25.10;24.80;;;;;;2238347;62;20435;-64
2022/09/23 07:51:34;0.00;0.00;0.62;0.00;0.00;0.62;2.50;1.60;;;25.10;24.80;;;;;;2238410;62;20359;-65
2022/09/23 07:54:18;0.00;0.00;0.62;0.00;0.00;0.62;2.07;1.60;;;25.10;24.90;;;;;;2236794;62;20366;-62
2022/09/23 07:57:05;0.00;0.00;0.62;0.00;0.00;0.62;2.23;1.40;;;25.10;24.90;;;;;;2237978;62;20358;-62
2022/09/23 07:59:49;0.00;0.00;0.62;0.00;0.00;0.62;2.00;1.10;;;25.10;25.00;;;;;;2238279;62;20367;-62
2022/09/23 08:02:34;0.00;0.00;0.62;0.00;0.00;0.62;1.77;1.00;;;25.10;24.90;;;;;;2237496;62;20375;-62
2022/09/23 08:05:19;0.00;0.00;0.62;0.00;0.00;0.62;1.80;1.40;;;25.10;25.00;;;;;;2238213;62;20372;-62
2022/09/23 08:08:05;0.00;0.00;0.62;0.00;0.00;0.62;1.80;1.30;;;25.10;25.00;;;;;;2237152;62;20758;-62
2022/09/23 08:10:51;0.00;0.00;0.62;0.00;0.00;0.62;2.10;1.20;;;25.20;25.00;;;;;;2238181;62;20456;-64
2022/09/23 08:13:37;0.00;0.00;0.62;0.00;0.00;0.62;1.70;1.13;;;25.20;25.00;;;;;;2238048;62;20583;-62
2022/09/23 08:16:21;0.00;0.00;0.62;0.00;0.00;0.62;2.60;1.60;;;25.20;25.00;;;;;;2237027;62;20363;-65
2022/09/23 08:19:06;0.00;0.00;0.62;0.00;0.00;0.62;2.60;0.90;;;25.30;25.10;;;;;;2238074;62;20427;-65
2022/09/23 08:21:53;0.00;0.00;0.62;0.00;0.00;0.62;2.53;1.50;;;25.30;25.20;;;;;;2238075;62;20435;-65
2022/09/23 08:24:37;0.00;0.00;0.62;0.00;0.00;0.62;1.93;1.27;;;25.30;25.20;;;;;;2237378;62;20739;-65
2022/09/23 08:27:22;0.00;0.00;0.62;0.00;0.00;0.62;2.77;1.23;;;25.30;25.20;;;;;;2238122;62;20384;-64
2022/09/23 08:30:10;0.00;0.00;0.62;0.00;0.00;0.62;1.70;1.20;;;25.40;25.30;;;;;;2237271;62;20391;-63
2022/09/23 08:32:55;0.00;0.00;0.62;0.00;0.00;0.62;2.00;1.10;;;25.40;25.30;;;;;;2237953;62;20371;-64
2022/09/23 08:35:40;0.00;0.00;0.62;0.00;0.00;0.62;1.90;1.30;;;25.40;25.30;;;;;;2234261;62;20479;-64
2022/09/23 08:38:25;0.00;0.00;0.62;0.00;0.00;0.62;2.30;1.40;;;25.40;25.30;;;;;;2232856;62;20879;-65
2022/09/23 08:41:19;0.00;0.00;0.62;0.00;0.00;0.62;1.97;1.17;;;25.50;25.30;;;;;;2236554;62;20397;-64
2022/09/23 08:44:12;0.00;0.00;0.62;0.00;0.00;0.62;1.60;1.10;;;25.50;25.30;;;;;;2234237;62;20387;-64
2022/09/23 08:47:10;0.00;0.00;0.62;0.00;0.00;0.62;1.70;0.90;;;25.50;25.30;;;;;;2233455;62;20633;-64
2022/09/23 08:50:05;0.00;0.00;0.62;0.00;0.00;0.62;1.90;1.33;;;25.60;25.40;;;;;;2234238;62;20721;-64
2022/09/23 08:52:53;0.00;0.00;0.62;0.00;0.00;0.62;1.60;1.00;;;25.60;25.40;;;;;;2233191;62;20378;-64
2022/09/23 08:55:45;0.00;0.00;0.62;0.00;0.00;0.62;1.60;1.00;;;25.60;25.90;;;;;;2234104;62;20371;-64
2022/09/23 08:58:42;0.00;0.00;0.62;0.00;0.00;0.62;1.40;1.03;;;25.70;25.40;;;;;;2234229;62;20417;-64
2022/09/23 09:01:38;0.00;0.00;0.62;0.00;0.00;0.62;1.97;1.20;;;25.70;25.40;;;;;;2233167;62;20797;-64
2022/09/23 09:04:34;0.00;0.00;0.62;0.00;0.00;0.62;1.90;0.90;;;25.70;25.40;;;;;;2234195;62;20409;-64
2022/09/23 09:07:23;0.00;0.00;0.62;0.00;0.00;0.62;2.47;1.33;;;25.70;25.40;;;;;;2233041;62;20368;-64
2022/09/23 09:10:18;0.00;0.00;0.62;0.00;0.00;0.62;2.47;1.50;;;25.80;25.40;;;;;;2234152;62;20364;-64
2022/09/23 09:13:09;0.00;0.00;0.62;0.00;0.00;0.62;1.80;1.20;;;25.80;25.40;;;;;;2234227;62;20363;-64
2022/09/23 09:16:16;0.00;0.00;0.62;0.00;0.00;0.62;1.53;1.00;;;25.80;25.40;;;;;;2232737;62;20398;-64
2022/09/23 09:19:04;0.00;0.00;0.62;0.00;0.00;0.62;1.80;1.30;;;25.80;25.40;;;;;;2234108;62;20413;-65
2022/09/23 09:21:54;0.00;0.00;0.62;0.00;0.00;0.62;1.80;1.13;;;25.90;25.50;;;;;;2233467;62;20796;-65
2022/09/23 09:24:42;0.00;0.00;0.62;0.00;0.00;0.62;1.80;1.00;;;25.90;25.50;;;;;;2234250;62;20436;-65
2022/09/23 09:27:27;0.00;0.00;0.62;0.00;0.00;0.62;1.60;1.07;;;25.90;25.40;;;;;;2233986;62;20404;-64
2022/09/23 09:30:13;0.00;0.00;0.62;0.00;0.00;0.62;1.40;0.90;;;26.00;25.50;;;;;;2232922;62;20408;-64
2022/09/23 09:33:02;0.00;0.00;0.62;0.00;0.00;0.62;1.90;1.00;;;26.00;25.50;;;;;;2233857;62;20711;-64
2022/09/23 09:36:07;0.00;0.00;0.62;0.00;0.00;0.62;2.20;1.20;;;26.00;25.50;;;;;;2229937;62;20445;-65
2022/09/23 09:38:57;0.00;0.00;0.62;0.00;0.00;0.62;1.70;1.10;;;26.00;25.50;;;;;;2229460;62;20433;-65
2022/09/23 09:41:47;0.00;0.00;0.62;0.00;0.00;0.62;1.77;1.07;;;26.10;25.60;;;;;;2230097;62;20495;-65
2022/09/23 09:44:39;0.00;0.00;0.62;0.00;0.00;0.62;2.20;1.00;;;26.10;25.50;;;;;;2228920;62;20385;-65
2022/09/23 09:47:37;0.00;0.00;0.62;0.00;0.00;0.62;1.90;1.23;;;26.10;25.60;;;;;;2230021;62;20419;-64
2022/09/23 09:50:48;0.00;0.00;0.62;0.00;0.00;0.62;1.83;1.10;;;26.20;25.60;;;;;;2229965;62;20732;-64
2022/09/23 09:53:34;0.00;0.00;0.62;0.00;0.00;0.62;1.50;0.87;;;26.20;25.60;;;;;;2229357;62;20410;-67
2022/09/23 09:56:29;0.00;0.00;0.62;0.00;0.00;0.62;1.60;1.00;;;26.20;25.60;;;;;;2229794;62;20369;-65
2022/09/23 09:59:21;0.00;0.00;0.62;0.00;0.00;0.62;1.47;1.10;;;26.30;26.20;;;;;;2228570;62;20433;-65
2022/09/23 10:02:23;0.00;0.00;0.62;0.00;0.00;0.62;1.50;0.90;;;26.30;25.60;;;;;;2230164;62;20396;-65
2022/09/23 10:05:25;0.00;0.00;0.62;0.00;0.00;0.62;3.37;1.13;;;26.30;25.60;;;;;;2230002;62;20368;-65
2022/09/23 10:08:25;0.00;0.00;0.62;0.00;0.00;0.62;1.40;0.90;;;26.30;25.70;;;;;;2229048;62;20478;-65
2022/09/23 10:11:16;0.00;0.00;0.62;0.00;0.00;0.62;2.13;1.20;;;26.40;25.70;;;;;;2229940;62;20405;-64
2022/09/23 10:14:12;0.00;0.00;0.62;0.00;0.00;0.62;1.40;0.90;;;26.40;25.70;;;;;;2229068;62;20373;-65
2022/09/23 10:17:04;0.00;0.00;0.62;0.00;0.00;0.62;1.50;0.90;;;26.40;25.70;;;;;;2229927;62;20409;-65
2022/09/23 10:19:59;0.00;0.00;0.62;0.00;0.00;0.62;1.40;0.90;;;26.40;25.70;;;;;;2229845;62;20414;-65
2022/09/23 10:22:45;0.00;0.00;0.62;0.00;0.00;0.62;2.77;1.50;;;26.50;25.70;;;;;;2229043;62;20437;-64
2022/09/23 10:25:33;0.00;0.00;0.62;0.00;0.00;0.62;1.60;1.00;;;26.50;25.70;;;;;;2229647;62;20391;-64
2022/09/23 10:28:45;0.00;0.00;0.62;0.00;0.00;0.62;1.37;0.90;;;26.50;25.70;;;;;;2232022;62;20408;-64
2022/09/23 10:31:33;0.00;0.00;0.62;0.00;0.00;0.62;1.50;0.90;;;26.60;25.70;;;;;;2229946;62;20806;-65
2022/09/23 10:34:25;0.00;0.00;0.62;0.00;0.00;0.62;1.40;0.80;;;26.60;25.70;;;;;;2232702;62;20420;-65
2022/09/23 10:37:15;0.00;0.00;0.62;0.00;0.00;0.62;1.50;1.00;;;26.60;25.70;;;;;;2232512;62;20359;-64
2022/09/23 10:46:38;0.00;0.00;0.62;0.00;0.00;0.62;1.50;1.00;;;26.70;25.70;;;;;;2233678;62;20367;-64
2022/09/23 10:49:54;0.00;0.00;0.62;0.00;0.00;0.62;2.10;1.07;;;26.80;25.80;;;;;;2233909;62;20494;-64
2022/09/23 10:52:52;0.00;0.00;0.62;0.00;0.00;0.62;1.87;1.07;;;26.80;25.80;;;;;;2233037;62;20413;-65
2022/09/23 10:55:56;0.00;0.00;0.62;0.00;0.00;0.62;1.37;0.80;;;26.90;25.80;;;;;;2236098;62;20417;-65
2022/09/23 10:59:18;0.00;0.00;0.62;0.00;0.00;0.62;1.90;1.00;;;26.90;25.80;;;;;;2232596;62;20388;-65
2022/09/23 11:02:23;0.00;0.00;0.62;0.00;0.00;0.62;1.40;0.80;;;26.90;25.80;;;;;;2233778;62;20384;-65
2022/09/23 11:05:27;0.00;0.00;0.62;0.00;0.00;0.62;1.60;0.93;;;27.00;25.80;;;;;;2233544;62;20369;-65
2022/09/23 11:08:38;0.00;0.00;0.62;0.00;0.00;0.62;1.40;0.80;;;27.00;25.80;;;;;;2233682;62;20392;-65
2022/09/23 11:11:42;0.00;0.00;0.62;0.00;0.00;0.62;1.50;0.90;;;27.00;26.30;;;;;;2233860;62;20425;-65
2022/09/23 11:14:42;0.00;0.00;0.62;0.00;0.00;0.62;1.50;0.80;;;27.00;25.80;;;;;;2232755;62;20409;-63